createdAt,value
2023-05-29T00:02:17.325Z,21.63
2023-05-29T00:04:44.249Z,21.58
2023-05-29T00:07:11.234Z,21.52
2023-05-29T00:09:38.058Z,21.47
2023-05-29T00:12:06.756Z,21.41
2023-05-29T00:14:33.573Z,21.36
2023-05-29T00:17:00.441Z,21.31
2023-05-29T00:19:30.792Z,21.26
2023-05-29T00:21:57.593Z,21.20
2023-05-29T00:24:24.419Z,21.16
2023-05-29T00:26:51.356Z,21.10
2023-05-29T00:29:18.183Z,21.04
2023-05-29T00:31:45.152Z,20.98
2023-05-29T00:34:12.001Z,20.93
2023-05-29T00:36:39.415Z,20.85
2023-05-29T00:39:06.288Z,20.80
2023-05-29T00:41:33.207Z,20.74
2023-05-29T00:44:00.040Z,20.70
2023-05-29T00:46:27.253Z,20.64
2023-05-29T00:48:54.858Z,20.60
2023-05-29T00:51:21.807Z,20.54
2023-05-29T00:53:51.476Z,20.50
2023-05-29T00:56:19.231Z,20.47
2023-05-29T00:58:46.316Z,20.43
2023-05-29T01:01:13.572Z,20.40
2023-05-29T01:03:42.444Z,20.38
2023-05-29T01:06:11.255Z,20.34
2023-05-29T01:08:38.713Z,20.33
2023-05-29T01:11:38.215Z,20.27
2023-05-29T01:14:10.976Z,20.23
2023-05-29T01:17:26.996Z,20.19
2023-05-29T01:20:35.495Z,20.11
2023-05-29T01:23:28.015Z,20.06
2023-05-29T01:26:32.832Z,20.01
2023-05-29T01:29:03.833Z,19.96
2023-05-29T01:31:32.268Z,19.93
2023-05-29T01:34:01.254Z,19.90
2023-05-29T01:36:28.436Z,19.84
2023-05-29T01:38:58.492Z,19.79
2023-05-29T01:41:26.397Z,19.76
2023-05-29T01:43:54.150Z,19.73
2023-05-29T01:46:22.864Z,19.71
2023-05-29T01:48:50.262Z,19.66
2023-05-29T01:51:17.141Z,19.61
2023-05-29T01:53:45.202Z,19.56
2023-05-29T01:56:12.464Z,19.53
2023-05-29T01:58:42.413Z,19.49
2023-05-29T02:01:12.816Z,19.47
2023-05-29T02:03:39.753Z,19.44
2023-05-29T02:06:07.854Z,19.42
2023-05-29T02:08:34.716Z,19.39
2023-05-29T02:11:01.544Z,19.37
2023-05-29T02:13:28.416Z,19.35
2023-05-29T02:15:55.227Z,19.31
2023-05-29T02:18:22.069Z,19.30
2023-05-29T02:20:49.200Z,19.27
2023-05-29T02:23:16.485Z,19.23
2023-05-29T02:25:43.769Z,19.20
2023-05-29T02:28:10.832Z,19.17
2023-05-29T02:30:37.692Z,19.18
2023-05-29T02:33:04.848Z,19.20
2023-05-29T02:35:31.715Z,19.19
2023-05-29T02:37:58.568Z,19.18
2023-05-29T02:40:25.487Z,19.16
2023-05-29T02:42:52.464Z,19.14
2023-05-29T02:45:20.226Z,19.13
2023-05-29T02:47:47.106Z,19.11
2023-05-29T02:50:15.680Z,19.11
2023-05-29T02:52:42.816Z,19.10
2023-05-29T02:55:09.892Z,19.11
2023-05-29T02:57:36.735Z,19.11
2023-05-29T03:00:08.578Z,19.09
2023-05-29T03:02:38.656Z,19.09
2023-05-29T03:05:06.052Z,19.09
2023-05-29T03:07:33.013Z,19.07
2023-05-29T03:10:00.234Z,19.06
2023-05-29T03:12:28.952Z,19.04
2023-05-29T03:14:57.428Z,19.04
2023-05-29T03:17:24.542Z,19.02
2023-05-29T03:19:52.047Z,18.99
2023-05-29T03:22:19.075Z,18.98
2023-05-29T03:24:46.255Z,18.96
2023-05-29T03:27:13.057Z,18.94
2023-05-29T03:29:39.928Z,18.90
2023-05-29T03:32:06.875Z,18.87
2023-05-29T03:34:33.701Z,18.86
2023-05-29T03:37:00.577Z,18.85
2023-05-29T03:39:27.973Z,18.84
2023-05-29T03:41:54.766Z,18.82
2023-05-29T03:44:21.581Z,18.81
2023-05-29T03:46:48.472Z,18.79
2023-05-29T03:49:15.356Z,18.77
2023-05-29T03:51:42.210Z,18.77
2023-05-29T03:54:09.042Z,18.76
2023-05-29T03:56:37.026Z,18.76
2023-05-29T03:59:04.084Z,18.77
2023-05-29T04:01:31.012Z,18.77
2023-05-29T04:03:57.960Z,18.76
2023-05-29T04:06:24.944Z,18.75
2023-05-29T04:08:51.787Z,18.75
2023-05-29T04:11:21.757Z,18.73
2023-05-29T04:13:49.142Z,18.72
2023-05-29T04:16:16.642Z,18.70
2023-05-29T04:18:43.617Z,18.71
2023-05-29T04:21:11.239Z,18.72
2023-05-29T04:23:38.099Z,18.73
2023-05-29T04:26:06.532Z,18.74
2023-05-29T04:28:33.457Z,18.74
2023-05-29T04:31:01.500Z,18.74
2023-05-29T04:33:29.404Z,18.74
2023-05-29T04:35:56.512Z,18.74
2023-05-29T04:38:26.279Z,18.74
2023-05-29T04:40:58.420Z,18.75
2023-05-29T04:43:27.258Z,18.73
2023-05-29T04:45:54.729Z,18.74
2023-05-29T04:48:21.549Z,18.72
2023-05-29T04:50:49.489Z,18.71
2023-05-29T04:53:17.117Z,18.69
2023-05-29T04:55:44.222Z,18.68
2023-05-29T04:58:13.310Z,18.68
2023-05-29T05:00:40.195Z,18.68
2023-05-29T05:03:07.342Z,18.69
2023-05-29T05:05:34.285Z,18.68
2023-05-29T05:08:01.148Z,18.68
2023-05-29T05:10:27.998Z,18.71
2023-05-29T05:12:54.919Z,18.72
2023-05-29T05:15:21.820Z,18.71
2023-05-29T05:17:48.717Z,18.72
2023-05-29T05:20:16.265Z,18.73
2023-05-29T05:22:43.311Z,18.73
2023-05-29T05:25:10.250Z,18.75
2023-05-29T05:27:37.100Z,18.77
2023-05-29T05:30:07.925Z,18.79
2023-05-29T05:32:36.180Z,18.82
2023-05-29T05:35:04.332Z,18.85
2023-05-29T05:37:31.530Z,18.86
2023-05-29T05:39:59.254Z,18.89
2023-05-29T05:42:26.127Z,18.89
2023-05-29T05:44:53.667Z,18.89
2023-05-29T05:47:20.494Z,18.90
2023-05-29T05:49:47.336Z,18.90
2023-05-29T05:52:14.163Z,18.88
2023-05-29T05:54:41.119Z,18.89
2023-05-29T05:57:08.395Z,18.88
2023-05-29T05:59:35.559Z,18.88
2023-05-29T06:02:02.821Z,18.89
2023-05-29T06:04:29.696Z,18.93
2023-05-29T06:06:56.869Z,18.97
2023-05-29T06:09:23.690Z,19.00
2023-05-29T06:11:50.999Z,19.03
2023-05-29T06:14:17.905Z,19.03
2023-05-29T06:16:44.777Z,19.03
2023-05-29T06:19:11.770Z,19.03
2023-05-29T06:21:38.606Z,19.03
2023-05-29T06:24:05.637Z,19.02
2023-05-29T06:26:32.481Z,19.04
2023-05-29T06:28:59.383Z,19.04
2023-05-29T06:31:26.487Z,19.06
2023-05-29T06:33:53.379Z,19.09
2023-05-29T06:36:20.188Z,19.16
2023-05-29T06:38:51.600Z,19.20
2023-05-29T06:41:19.699Z,19.20
2023-05-29T06:43:46.562Z,19.22
2023-05-29T06:46:16.081Z,19.26
2023-05-29T06:48:43.053Z,19.27
2023-05-29T06:51:10.322Z,19.29
2023-05-29T06:53:37.384Z,19.37
2023-05-29T06:56:05.063Z,19.39
2023-05-29T06:58:32.659Z,19.41
2023-05-29T07:01:03.424Z,19.45
2023-05-29T07:03:32.033Z,19.46
2023-05-29T07:05:58.950Z,19.46
2023-05-29T07:08:26.329Z,19.46
2023-05-29T07:10:53.314Z,19.46
2023-05-29T07:13:20.307Z,19.47
2023-05-29T07:15:47.281Z,19.47
2023-05-29T07:18:14.225Z,19.47
2023-05-29T07:20:42.859Z,19.51
2023-05-29T07:23:09.784Z,19.53
2023-05-29T07:25:36.644Z,19.59
2023-05-29T07:28:14.639Z,19.68
2023-05-29T07:30:48.342Z,19.77
2023-05-29T07:33:15.294Z,19.80
2023-05-29T07:35:42.094Z,19.81
2023-05-29T07:38:09.123Z,19.84
2023-05-29T07:40:35.947Z,19.86
2023-05-29T07:43:02.891Z,19.92
2023-05-29T07:45:29.699Z,19.95
2023-05-29T07:47:56.592Z,19.97
2023-05-29T07:50:24.601Z,20.03
2023-05-29T07:52:51.489Z,20.06
2023-05-29T07:55:18.376Z,20.08
2023-05-29T07:57:45.216Z,20.14
2023-05-29T08:00:14.393Z,20.20
2023-05-29T08:02:41.420Z,20.26
2023-05-29T08:05:09.057Z,20.30
2023-05-29T08:07:37.771Z,20.35
2023-05-29T08:10:06.740Z,20.38
2023-05-29T08:12:35.477Z,20.41
2023-05-29T08:15:03.912Z,20.43
2023-05-29T08:17:31.360Z,20.45
2023-05-29T08:19:58.247Z,20.48
2023-05-29T08:22:30.812Z,20.56
2023-05-29T08:24:57.722Z,20.60
2023-05-29T08:27:24.590Z,20.65
2023-05-29T08:29:51.623Z,20.68
2023-05-29T08:32:18.477Z,20.67
2023-05-29T08:34:47.087Z,20.66
2023-05-29T08:37:14.588Z,20.70
2023-05-29T08:39:41.484Z,20.72
2023-05-29T08:42:23.454Z,20.76
2023-05-29T08:44:55.321Z,20.79
2023-05-29T08:47:34.449Z,20.84
2023-05-29T08:50:02.510Z,20.88
2023-05-29T08:52:36.557Z,20.91
2023-05-29T08:55:03.678Z,20.95
2023-05-29T08:57:31.708Z,20.98
2023-05-29T08:59:59.536Z,21.00
2023-05-29T09:02:26.436Z,21.03
2023-05-29T09:04:55.367Z,21.08
2023-05-29T09:07:23.349Z,21.14
2023-05-29T09:09:50.681Z,21.20
2023-05-29T09:12:18.196Z,21.22
2023-05-29T09:14:46.226Z,21.26
2023-05-29T09:17:14.691Z,21.29
2023-05-29T09:19:42.249Z,21.32
2023-05-29T09:22:15.927Z,21.33
2023-05-29T09:24:48.580Z,21.33
2023-05-29T09:27:15.974Z,21.37
2023-05-29T09:29:44.754Z,21.39
2023-05-29T09:32:17.808Z,21.42
2023-05-29T09:34:45.458Z,21.43
2023-05-29T09:37:14.856Z,21.48
2023-05-29T09:39:42.944Z,21.49
2023-05-29T09:42:13.217Z,21.55
2023-05-29T09:44:45.598Z,21.60
2023-05-29T09:47:18.649Z,21.70
2023-05-29T09:49:49.309Z,21.76
2023-05-29T09:52:22.097Z,21.82
2023-05-29T09:54:50.011Z,21.87
2023-05-29T09:57:18.670Z,21.89
2023-05-29T09:59:46.306Z,21.93
2023-05-29T10:02:16.711Z,21.99
2023-05-29T10:04:45.045Z,22.07
2023-05-29T10:07:29.063Z,22.15
2023-05-29T10:10:10.211Z,22.20
2023-05-29T10:12:40.621Z,22.28
2023-05-29T10:15:16.837Z,22.37
2023-05-29T10:18:35.903Z,22.47
2023-05-29T10:21:03.342Z,22.54
2023-05-29T10:23:31.623Z,22.61
2023-05-29T10:26:16.522Z,22.63
2023-05-29T10:28:53.897Z,22.65
2023-05-29T10:31:54.339Z,22.65
2023-05-29T10:34:43.009Z,22.67
2023-05-29T10:37:37.067Z,22.72
2023-05-29T10:40:13.768Z,22.79
2023-05-29T10:42:48.988Z,22.87
2023-05-29T10:45:29.363Z,22.93
2023-05-29T10:47:56.435Z,22.95
2023-05-29T10:50:43.724Z,23.03
2023-05-29T10:53:12.216Z,23.06
2023-05-29T10:55:41.199Z,23.14
2023-05-29T10:58:09.578Z,23.23
2023-05-29T11:00:47.142Z,23.31
2023-05-29T11:03:31.563Z,23.36
2023-05-29T11:05:59.446Z,23.41
2023-05-29T11:08:46.921Z,23.50
2023-05-29T11:11:31.743Z,23.57
2023-05-29T11:14:03.000Z,23.51
2023-05-29T11:16:33.525Z,23.56
2023-05-29T11:19:08.744Z,23.59
2023-05-29T11:21:47.665Z,23.61
2023-05-29T11:24:34.228Z,23.60
2023-05-29T11:27:07.671Z,23.63
2023-05-29T11:29:34.601Z,23.71
2023-05-29T11:32:13.664Z,23.77
2023-05-29T11:34:42.574Z,23.78
2023-05-29T11:37:09.561Z,23.80
2023-05-29T11:39:39.585Z,23.80
2023-05-29T11:42:07.964Z,23.81
2023-05-29T11:44:34.862Z,23.83
2023-05-29T11:47:06.770Z,23.90
2023-05-29T11:49:36.339Z,23.93
2023-05-29T11:52:15.612Z,24.01
2023-05-29T11:54:48.849Z,24.06
2023-05-29T11:57:22.708Z,24.10
2023-05-29T11:59:53.197Z,24.18
2023-05-29T12:02:20.677Z,24.26
2023-05-29T12:05:05.826Z,24.41
2023-05-29T12:07:33.023Z,24.46
2023-05-29T12:10:14.212Z,24.50
2023-05-29T12:12:41.305Z,24.49
2023-05-29T12:15:09.610Z,24.50
2023-05-29T12:17:37.490Z,24.57
2023-05-29T12:20:09.265Z,24.66
2023-05-29T12:22:38.264Z,24.78
2023-05-29T12:25:17.073Z,24.89
2023-05-29T12:27:48.051Z,25.00
2023-05-29T12:30:31.348Z,25.05
2023-05-29T12:33:02.916Z,25.13
2023-05-29T12:35:31.068Z,25.16
2023-05-29T12:38:09.440Z,25.23
2023-05-29T12:40:37.976Z,25.29
2023-05-29T12:43:08.026Z,25.38
2023-05-29T12:45:35.500Z,25.41
2023-05-29T12:48:07.799Z,25.45
2023-05-29T12:50:39.795Z,25.45
2023-05-29T12:53:15.077Z,25.45
2023-05-29T12:55:44.156Z,25.43
2023-05-29T12:58:16.708Z,25.45
2023-05-29T13:00:46.447Z,25.48
2023-05-29T13:03:13.871Z,25.48
2023-05-29T13:05:40.978Z,25.48
2023-05-29T13:08:08.891Z,25.54
2023-05-29T13:10:36.101Z,25.61
2023-05-29T13:13:03.663Z,25.72
2023-05-29T13:15:31.118Z,25.83
2023-05-29T13:17:58.008Z,25.88
2023-05-29T13:20:25.011Z,25.91
2023-05-29T13:22:52.024Z,25.94
2023-05-29T13:25:22.386Z,25.97
2023-05-29T13:27:52.420Z,26.01
2023-05-29T13:30:19.762Z,26.06
2023-05-29T13:32:46.669Z,26.14
2023-05-29T13:35:13.950Z,26.20
2023-05-29T13:37:41.129Z,26.25
2023-05-29T13:40:10.315Z,26.30
2023-05-29T13:42:40.410Z,26.38
2023-05-29T13:45:08.766Z,26.40
2023-05-29T13:47:36.945Z,26.36
2023-05-29T13:50:04.832Z,26.34
2023-05-29T13:52:31.805Z,26.35
2023-05-29T13:55:05.781Z,26.37
2023-05-29T13:57:32.927Z,26.40
2023-05-29T13:59:59.748Z,26.46
2023-05-29T14:02:26.866Z,26.51
2023-05-29T14:04:53.845Z,26.56
2023-05-29T14:07:20.932Z,26.64
2023-05-29T14:09:47.892Z,26.68
2023-05-29T14:12:17.476Z,26.71
2023-05-29T14:14:44.422Z,26.73
2023-05-29T14:17:11.486Z,26.73
2023-05-29T14:19:38.339Z,26.72
2023-05-29T14:22:05.742Z,26.71
2023-05-29T14:24:32.567Z,26.71
2023-05-29T14:26:59.435Z,26.72
2023-05-29T14:29:26.956Z,26.76
2023-05-29T14:31:54.523Z,26.77
2023-05-29T14:34:21.389Z,26.76
2023-05-29T14:36:51.687Z,26.73
2023-05-29T14:39:20.327Z,26.69
2023-05-29T14:41:49.744Z,26.68
2023-05-29T14:44:16.998Z,26.70
2023-05-29T14:46:43.967Z,26.68
2023-05-29T14:49:10.917Z,26.65
2023-05-29T14:51:37.743Z,26.65
2023-05-29T14:54:04.891Z,26.68
2023-05-29T14:56:31.799Z,26.72
2023-05-29T14:58:58.751Z,26.72
2023-05-29T15:01:26.167Z,26.67
2023-05-29T15:03:53.132Z,26.65
2023-05-29T15:06:25.199Z,26.61
2023-05-29T15:08:52.072Z,26.55
2023-05-29T15:11:20.629Z,26.53
2023-05-29T15:13:47.593Z,26.52
2023-05-29T15:16:14.599Z,26.53
2023-05-29T15:18:41.583Z,26.53
2023-05-29T15:21:08.755Z,26.52
2023-05-29T15:23:39.929Z,26.55
2023-05-29T15:26:06.971Z,26.57
2023-05-29T15:28:33.990Z,26.60
2023-05-29T15:31:01.136Z,26.62
2023-05-29T15:33:31.109Z,26.60
2023-05-29T15:35:58.381Z,26.58
2023-05-29T15:38:28.269Z,26.56
2023-05-29T15:40:57.781Z,26.53
2023-05-29T15:43:25.233Z,26.53
2023-05-29T15:45:52.537Z,26.54
2023-05-29T15:48:19.385Z,26.50
2023-05-29T15:50:46.187Z,26.48
2023-05-29T15:53:13.023Z,26.44
2023-05-29T15:55:43.919Z,26.45
2023-05-29T15:58:10.874Z,26.45
2023-05-29T16:00:38.103Z,26.47
2023-05-29T16:03:15.438Z,26.50
2023-05-29T16:05:42.545Z,26.48
2023-05-29T16:08:09.517Z,26.48
2023-05-29T16:10:41.656Z,26.48
2023-05-29T16:13:15.766Z,26.47
2023-05-29T16:15:48.942Z,26.43
2023-05-29T16:18:18.884Z,26.38
2023-05-29T16:20:45.901Z,26.33
2023-05-29T16:23:12.784Z,26.33
2023-05-29T16:25:39.712Z,26.31
2023-05-29T16:28:06.597Z,26.28
2023-05-29T16:30:33.873Z,26.27
2023-05-29T16:33:00.832Z,26.28
2023-05-29T16:35:27.761Z,26.30
2023-05-29T16:37:54.599Z,26.31
2023-05-29T16:40:24.071Z,26.29
2023-05-29T16:42:51.040Z,26.26
2023-05-29T16:45:18.298Z,26.24
2023-05-29T16:47:45.203Z,26.21
2023-05-29T16:50:15.448Z,26.18
2023-05-29T16:52:57.041Z,26.18
2023-05-29T16:55:26.792Z,26.14
2023-05-29T16:57:55.952Z,26.10
2023-05-29T17:00:23.846Z,26.07
2023-05-29T17:02:51.723Z,26.03
2023-05-29T17:05:18.684Z,25.98
2023-05-29T17:07:48.333Z,25.90
2023-05-29T17:10:15.332Z,25.83
2023-05-29T17:12:46.637Z,25.79
2023-05-29T17:15:13.563Z,25.77
2023-05-29T17:17:43.383Z,25.71
2023-05-29T17:20:12.383Z,25.71
2023-05-29T17:22:39.407Z,25.68
2023-05-29T17:25:14.353Z,25.68
2023-05-29T17:27:43.618Z,25.65
2023-05-29T17:30:11.110Z,25.64
2023-05-29T17:32:38.045Z,25.66
2023-05-29T17:35:05.952Z,25.64
2023-05-29T17:37:32.858Z,25.64
2023-05-29T17:39:59.872Z,25.63
2023-05-29T17:42:26.775Z,25.58
2023-05-29T17:44:53.647Z,25.55
2023-05-29T17:47:30.020Z,25.52
2023-05-29T17:50:00.092Z,25.48
2023-05-29T17:52:29.619Z,25.46
2023-05-29T17:54:57.320Z,25.44
2023-05-29T17:57:24.604Z,25.41
2023-05-29T17:59:51.517Z,25.36
2023-05-29T18:02:18.525Z,25.32
2023-05-29T18:04:51.238Z,25.28
2023-05-29T18:07:22.731Z,25.23
2023-05-29T18:09:49.674Z,25.18
2023-05-29T18:12:16.717Z,25.13
2023-05-29T18:14:43.665Z,25.07
2023-05-29T18:17:10.656Z,25.03
2023-05-29T18:19:38.253Z,24.98
2023-05-29T18:22:15.770Z,24.92
2023-05-29T18:24:42.642Z,24.83
2023-05-29T18:27:09.891Z,24.76
2023-05-29T18:29:39.355Z,24.70
2023-05-29T18:32:07.101Z,24.67
2023-05-29T18:34:33.932Z,24.63
2023-05-29T18:37:00.810Z,24.59
2023-05-29T18:39:27.701Z,24.51
2023-05-29T18:41:54.679Z,24.44
2023-05-29T18:44:22.895Z,24.36
2023-05-29T18:46:49.804Z,24.31
2023-05-29T18:49:19.306Z,24.27
2023-05-29T18:51:46.129Z,24.16
2023-05-29T18:54:13.639Z,24.07
2023-05-29T18:56:40.440Z,24.00
2023-05-29T18:59:07.362Z,23.92
2023-05-29T19:01:35.312Z,23.83
2023-05-29T19:04:03.493Z,23.76
2023-05-29T19:06:31.450Z,23.70
2023-05-29T19:08:59.045Z,23.65
2023-05-29T19:11:26.497Z,23.60
2023-05-29T19:13:53.524Z,23.57
2023-05-29T19:16:22.176Z,23.48
2023-05-29T19:18:49.408Z,23.42
2023-05-29T19:21:16.446Z,23.37
2023-05-29T19:23:43.320Z,23.31
2023-05-29T19:26:10.376Z,23.25
2023-05-29T19:28:37.545Z,23.21
2023-05-29T19:31:04.613Z,23.18
2023-05-29T19:33:31.570Z,23.09
2023-05-29T19:35:58.418Z,23.04
2023-05-29T19:38:25.399Z,22.99
2023-05-29T19:40:52.367Z,22.92
2023-05-29T19:43:19.229Z,22.87
2023-05-29T19:45:49.514Z,22.82
2023-05-29T19:48:22.029Z,22.78
2023-05-29T19:50:48.883Z,22.74
2023-05-29T19:53:16.213Z,22.70
2023-05-29T19:55:43.136Z,22.69
2023-05-29T19:58:10.326Z,22.67
2023-05-29T20:00:37.246Z,22.65
2023-05-29T20:03:04.256Z,22.62
2023-05-29T20:05:31.260Z,22.60
2023-05-29T20:07:58.136Z,22.53
2023-05-29T20:10:24.946Z,22.49
2023-05-29T20:12:52.572Z,22.41
2023-05-29T20:15:19.581Z,22.33
2023-05-29T20:17:46.849Z,22.24
2023-05-29T20:20:13.731Z,22.18
2023-05-29T20:22:40.690Z,22.11
2023-05-29T20:25:07.796Z,22.05
2023-05-29T20:27:37.844Z,21.99
2023-05-29T20:30:05.813Z,21.91
2023-05-29T20:32:33.153Z,21.85
2023-05-29T20:35:00.109Z,21.79
2023-05-29T20:37:29.087Z,21.77
2023-05-29T20:39:55.915Z,21.72
2023-05-29T20:42:23.611Z,21.66
2023-05-29T20:44:51.657Z,21.60
2023-05-29T20:47:19.498Z,21.55
2023-05-29T20:49:46.592Z,21.47
2023-05-29T20:52:13.459Z,21.39
2023-05-29T20:54:40.355Z,21.33
2023-05-29T20:57:07.671Z,21.27
2023-05-29T20:59:34.713Z,21.24
2023-05-29T21:02:02.202Z,21.20
2023-05-29T21:04:29.034Z,21.16
2023-05-29T21:06:56.283Z,21.12
2023-05-29T21:09:23.378Z,21.06
2023-05-29T21:11:50.191Z,20.98
2023-05-29T21:14:17.079Z,20.89
2023-05-29T21:16:43.889Z,20.82
2023-05-29T21:19:10.892Z,20.74
2023-05-29T21:21:37.974Z,20.67
2023-05-29T21:24:11.681Z,20.61
2023-05-29T21:26:39.603Z,20.54
2023-05-29T21:29:06.743Z,20.48
2023-05-29T21:31:35.360Z,20.42
2023-05-29T21:34:02.456Z,20.36
2023-05-29T21:36:29.375Z,20.34
2023-05-29T21:38:56.496Z,20.29
2023-05-29T21:41:24.142Z,20.27
2023-05-29T21:43:51.111Z,20.24
2023-05-29T21:46:17.985Z,20.21
2023-05-29T21:48:44.922Z,20.19
2023-05-29T21:51:11.955Z,20.16
2023-05-29T21:53:39.933Z,20.10
2023-05-29T21:56:07.401Z,20.07
2023-05-29T21:58:34.559Z,20.01
2023-05-29T22:01:01.720Z,19.96
2023-05-29T22:03:28.608Z,19.94
2023-05-29T22:05:55.487Z,19.92
2023-05-29T22:08:22.345Z,19.90
2023-05-29T22:10:49.316Z,19.88
2023-05-29T22:13:16.155Z,19.86
2023-05-29T22:15:43.019Z,19.85
2023-05-29T22:18:09.853Z,19.84
2023-05-29T22:20:37.520Z,19.80
2023-05-29T22:25:36.088Z,19.76
2023-05-29T22:28:04.059Z,19.76
2023-05-29T22:30:30.923Z,19.74
2023-05-29T22:32:58.234Z,19.68
2023-05-29T22:35:25.414Z,19.60
2023-05-29T22:37:52.566Z,19.50
2023-05-29T22:40:19.435Z,19.47
2023-05-29T22:42:46.690Z,19.41
2023-05-29T22:45:14.840Z,19.37
2023-05-29T22:47:44.453Z,19.27
2023-05-29T22:50:12.095Z,19.19
2023-05-29T22:52:39.745Z,19.15
2023-05-29T22:55:06.987Z,19.11
2023-05-29T22:57:34.500Z,19.05
2023-05-29T23:00:01.344Z,19.02
2023-05-29T23:02:28.781Z,19.01
2023-05-29T23:04:56.755Z,19.03
2023-05-29T23:07:23.935Z,19.03
2023-05-29T23:09:50.768Z,19.03
2023-05-29T23:12:17.851Z,19.03
2023-05-29T23:14:44.725Z,19.04
2023-05-29T23:17:12.026Z,19.07
2023-05-29T23:19:39.030Z,19.06
2023-05-29T23:22:06.378Z,19.05
2023-05-29T23:24:33.381Z,19.05
2023-05-29T23:27:00.268Z,19.03
2023-05-29T23:29:27.254Z,19.00
2023-05-29T23:31:54.205Z,18.97
2023-05-29T23:34:21.475Z,18.97
2023-05-29T23:36:48.355Z,18.94
2023-05-29T23:39:15.264Z,18.91
2023-05-29T23:41:43.331Z,18.90
2023-05-29T23:44:11.930Z,18.85
2023-05-29T23:46:39.735Z,18.83
2023-05-29T23:49:07.553Z,18.79
2023-05-29T23:51:34.848Z,18.76
2023-05-29T23:54:02.285Z,18.74
2023-05-29T23:56:29.154Z,18.70
2023-05-29T23:58:56.632Z,18.68
